sensor_id;sensor_type;location;lat;lon;timestamp;P1;durP1;ratioP1;P2;durP2;ratioP2
53115;SDS011;39010;48.088;7.954;2022-08-19T00:04:29;10.15;;;6.10;;
53115;SDS011;39010;48.088;7.954;2022-08-19T00:06:59;9.60;;;6.70;;
53115;SDS011;39010;48.088;7.954;2022-08-19T00:09:26;9.43;;;6.65;;
53115;SDS011;39010;48.088;7.954;2022-08-19T00:11:54;12.27;;;7.82;;
53115;SDS011;39010;48.088;7.954;2022-08-19T00:14:23;14.40;;;8.48;;
53115;SDS011;39010;48.088;7.954;2022-08-19T00:16:51;11.88;;;8.85;;
53115;SDS011;39010;48.088;7.954;2022-08-19T00:19:20;12.35;;;8.70;;
53115;SDS011;39010;48.088;7.954;2022-08-19T00:21:48;12.25;;;8.68;;
53115;SDS011;39010;48.088;7.954;2022-08-19T00:26:41;10.25;;;8.50;;
53115;SDS011;39010;48.088;7.954;2022-08-19T00:29:10;11.52;;;8.88;;
53115;SDS011;39010;48.088;7.954;2022-08-19T00:31:38;17.50;;;9.13;;
53115;SDS011;39010;48.088;7.954;2022-08-19T00:34:05;10.90;;;8.65;;
53115;SDS011;39010;48.088;7.954;2022-08-19T00:38:59;11.18;;;8.30;;
53115;SDS011;39010;48.088;7.954;2022-08-19T00:41:25;10.85;;;8.43;;
53115;SDS011;39010;48.088;7.954;2022-08-19T00:46:25;12.60;;;9.15;;
53115;SDS011;39010;48.088;7.954;2022-08-19T00:48:52;12.90;;;9.20;;
53115;SDS011;39010;48.088;7.954;2022-08-19T00:51:20;11.85;;;9.23;;
53115;SDS011;39010;48.088;7.954;2022-08-19T00:53:48;16.95;;;10.90;;
53115;SDS011;39010;48.088;7.954;2022-08-19T00:56:14;13.38;;;9.80;;
53115;SDS011;39010;48.088;7.954;2022-08-19T00:58:41;12.85;;;9.95;;
53115;SDS011;39010;48.088;7.954;2022-08-19T01:03:37;14.80;;;9.43;;
53115;SDS011;39010;48.088;7.954;2022-08-19T01:06:23;15.23;;;10.30;;
53115;SDS011;39010;48.088;7.954;2022-08-19T01:08:51;14.90;;;11.25;;
53115;SDS011;39010;48.088;7.954;2022-08-19T01:11:18;15.75;;;10.73;;
53115;SDS011;39010;48.088;7.954;2022-08-19T01:16:15;14.68;;;11.60;;
53115;SDS011;39010;48.088;7.954;2022-08-19T01:18:45;15.98;;;12.88;;
53115;SDS011;39010;48.088;7.954;2022-08-19T01:21:16;16.83;;;14.13;;
53115;SDS011;39010;48.088;7.954;2022-08-19T01:23:48;17.40;;;14.13;;
53115;SDS011;39010;48.088;7.954;2022-08-19T01:26:16;18.30;;;13.38;;
53115;SDS011;39010;48.088;7.954;2022-08-19T01:28:46;17.55;;;14.65;;
53115;SDS011;39010;48.088;7.954;2022-08-19T01:31:19;19.15;;;15.68;;
53115;SDS011;39010;48.088;7.954;2022-08-19T01:33:53;18.05;;;14.45;;
53115;SDS011;39010;48.088;7.954;2022-08-19T01:36:24;18.35;;;13.90;;
53115;SDS011;39010;48.088;7.954;2022-08-19T01:38:55;18.60;;;13.32;;
53115;SDS011;39010;48.088;7.954;2022-08-19T01:41:22;14.80;;;12.95;;
53115;SDS011;39010;48.088;7.954;2022-08-19T01:43:50;15.23;;;12.80;;
53115;SDS011;39010;48.088;7.954;2022-08-19T01:46:37;19.60;;;13.73;;
53115;SDS011;39010;48.088;7.954;2022-08-19T01:49:05;16.23;;;12.93;;
53115;SDS011;39010;48.088;7.954;2022-08-19T01:51:32;15.23;;;12.80;;
53115;SDS011;39010;48.088;7.954;2022-08-19T01:54:05;15.55;;;12.93;;
53115;SDS011;39010;48.088;7.954;2022-08-19T01:56:35;18.20;;;12.57;;
53115;SDS011;39010;48.088;7.954;2022-08-19T01:59:05;16.33;;;12.63;;
53115;SDS011;39010;48.088;7.954;2022-08-19T02:01:36;21.27;;;12.75;;
53115;SDS011;39010;48.088;7.954;2022-08-19T02:04:02;15.95;;;13.05;;
53115;SDS011;39010;48.088;7.954;2022-08-19T02:08:55;15.10;;;12.25;;
53115;SDS011;39010;48.088;7.954;2022-08-19T02:11:28;15.25;;;12.30;;
53115;SDS011;39010;48.088;7.954;2022-08-19T02:16:28;14.57;;;11.90;;
53115;SDS011;39010;48.088;7.954;2022-08-19T02:18:54;18.42;;;11.82;;
53115;SDS011;39010;48.088;7.954;2022-08-19T02:23:48;20.77;;;12.95;;
53115;SDS011;39010;48.088;7.954;2022-08-19T02:26:16;17.75;;;12.82;;
53115;SDS011;39010;48.088;7.954;2022-08-19T02:28:43;20.38;;;13.98;;
53115;SDS011;39010;48.088;7.954;2022-08-19T02:31:12;17.65;;;14.07;;
53115;SDS011;39010;48.088;7.954;2022-08-19T02:33:41;17.05;;;14.20;;
53115;SDS011;39010;48.088;7.954;2022-08-19T02:36:08;17.08;;;12.70;;
53115;SDS011;39010;48.088;7.954;2022-08-19T02:38:36;15.75;;;13.23;;
53115;SDS011;39010;48.088;7.954;2022-08-19T02:41:05;16.73;;;13.18;;
53115;SDS011;39010;48.088;7.954;2022-08-19T02:43:37;14.30;;;12.68;;
53115;SDS011;39010;48.088;7.954;2022-08-19T02:46:13;17.35;;;13.65;;
53115;SDS011;39010;48.088;7.954;2022-08-19T02:48:41;16.85;;;13.48;;
53115;SDS011;39010;48.088;7.954;2022-08-19T02:53:34;15.13;;;12.80;;
53115;SDS011;39010;48.088;7.954;2022-08-19T02:58:27;19.30;;;13.55;;
53115;SDS011;39010;48.088;7.954;2022-08-19T03:03:22;17.83;;;14.10;;
53115;SDS011;39010;48.088;7.954;2022-08-19T03:05:49;18.60;;;14.68;;
53115;SDS011;39010;48.088;7.954;2022-08-19T03:08:22;16.52;;;13.52;;
53115;SDS011;39010;48.088;7.954;2022-08-19T03:10:51;16.17;;;13.50;;
53115;SDS011;39010;48.088;7.954;2022-08-19T03:13:19;18.92;;;13.20;;
53115;SDS011;39010;48.088;7.954;2022-08-19T03:15:46;16.90;;;13.75;;
53115;SDS011;39010;48.088;7.954;2022-08-19T03:18:14;16.80;;;13.85;;
53115;SDS011;39010;48.088;7.954;2022-08-19T03:20:49;19.45;;;14.07;;
53115;SDS011;39010;48.088;7.954;2022-08-19T03:23:18;18.67;;;14.68;;
53115;SDS011;39010;48.088;7.954;2022-08-19T03:28:33;20.65;;;13.15;;
53115;SDS011;39010;48.088;7.954;2022-08-19T03:31:04;21.20;;;14.25;;
53115;SDS011;39010;48.088;7.954;2022-08-19T03:33:52;19.30;;;14.77;;
53115;SDS011;39010;48.088;7.954;2022-08-19T03:36:20;21.02;;;15.23;;
53115;SDS011;39010;48.088;7.954;2022-08-19T03:38:50;18.33;;;15.43;;
53115;SDS011;39010;48.088;7.954;2022-08-19T03:41:32;21.30;;;16.27;;
53115;SDS011;39010;48.088;7.954;2022-08-19T03:44:15;22.00;;;15.80;;
53115;SDS011;39010;48.088;7.954;2022-08-19T03:46:50;20.33;;;15.95;;
53115;SDS011;39010;48.088;7.954;2022-08-19T03:49:19;22.55;;;15.77;;
53115;SDS011;39010;48.088;7.954;2022-08-19T03:51:52;23.40;;;16.45;;
53115;SDS011;39010;48.088;7.954;2022-08-19T03:54:21;22.20;;;16.33;;
53115;SDS011;39010;48.088;7.954;2022-08-19T03:56:50;20.15;;;15.50;;
53115;SDS011;39010;48.088;7.954;2022-08-19T03:59:19;21.23;;;15.63;;
53115;SDS011;39010;48.088;7.954;2022-08-19T04:01:52;22.23;;;16.48;;
53115;SDS011;39010;48.088;7.954;2022-08-19T04:04:21;19.45;;;15.43;;
53115;SDS011;39010;48.088;7.954;2022-08-19T04:06:48;22.77;;;17.98;;
53115;SDS011;39010;48.088;7.954;2022-08-19T04:09:15;23.60;;;17.42;;
53115;SDS011;39010;48.088;7.954;2022-08-19T04:11:52;23.45;;;18.23;;
53115;SDS011;39010;48.088;7.954;2022-08-19T04:14:23;27.15;;;18.70;;
53115;SDS011;39010;48.088;7.954;2022-08-19T04:16:52;24.90;;;18.23;;
53115;SDS011;39010;48.088;7.954;2022-08-19T04:19:19;23.33;;;17.80;;
53115;SDS011;39010;48.088;7.954;2022-08-19T04:21:46;24.50;;;17.90;;
53115;SDS011;39010;48.088;7.954;2022-08-19T04:24:16;22.85;;;16.88;;
53115;SDS011;39010;48.088;7.954;2022-08-19T04:26:43;27.45;;;19.40;;
53115;SDS011;39010;48.088;7.954;2022-08-19T04:29:12;26.88;;;18.33;;
53115;SDS011;39010;48.088;7.954;2022-08-19T04:31:42;24.52;;;18.80;;
53115;SDS011;39010;48.088;7.954;2022-08-19T04:34:11;25.33;;;18.90;;
53115;SDS011;39010;48.088;7.954;2022-08-19T04:36:39;25.77;;;19.15;;
53115;SDS011;39010;48.088;7.954;2022-08-19T04:39:12;24.25;;;18.17;;
53115;SDS011;39010;48.088;7.954;2022-08-19T04:41:43;25.38;;;18.75;;
53115;SDS011;39010;48.088;7.954;2022-08-19T04:44:33;23.15;;;17.75;;
53115;SDS011;39010;48.088;7.954;2022-08-19T04:47:11;24.83;;;18.50;;
53115;SDS011;39010;48.088;7.954;2022-08-19T04:52:04;24.03;;;18.67;;
53115;SDS011;39010;48.088;7.954;2022-08-19T04:54:31;27.35;;;18.85;;
53115;SDS011;39010;48.088;7.954;2022-08-19T04:57:05;23.50;;;17.52;;
53115;SDS011;39010;48.088;7.954;2022-08-19T04:59:35;27.30;;;18.90;;
53115;SDS011;39010;48.088;7.954;2022-08-19T05:02:03;24.30;;;17.92;;
53115;SDS011;39010;48.088;7.954;2022-08-19T05:04:31;24.13;;;18.52;;
53115;SDS011;39010;48.088;7.954;2022-08-19T05:06:59;24.17;;;18.73;;
53115;SDS011;39010;48.088;7.954;2022-08-19T05:09:28;24.02;;;18.10;;
53115;SDS011;39010;48.088;7.954;2022-08-19T05:12:15;26.27;;;18.67;;
53115;SDS011;39010;48.088;7.954;2022-08-19T05:14:43;27.02;;;19.80;;
53115;SDS011;39010;48.088;7.954;2022-08-19T05:17:11;25.70;;;19.13;;
53115;SDS011;39010;48.088;7.954;2022-08-19T05:19:57;24.95;;;18.63;;
53115;SDS011;39010;48.088;7.954;2022-08-19T05:22:42;25.27;;;18.60;;
53115;SDS011;39010;48.088;7.954;2022-08-19T05:25:12;29.25;;;19.65;;
53115;SDS011;39010;48.088;7.954;2022-08-19T05:27:41;23.67;;;18.83;;
53115;SDS011;39010;48.088;7.954;2022-08-19T05:30:08;28.85;;;19.38;;
53115;SDS011;39010;48.088;7.954;2022-08-19T05:32:37;27.67;;;19.40;;
53115;SDS011;39010;48.088;7.954;2022-08-19T05:35:04;23.98;;;18.35;;
53115;SDS011;39010;48.088;7.954;2022-08-19T05:37:33;23.70;;;19.92;;
53115;SDS011;39010;48.088;7.954;2022-08-19T05:39:59;25.48;;;18.75;;
53115;SDS011;39010;48.088;7.954;2022-08-19T05:42:26;25.23;;;19.63;;
53115;SDS011;39010;48.088;7.954;2022-08-19T05:47:19;25.35;;;19.48;;
53115;SDS011;39010;48.088;7.954;2022-08-19T05:49:46;26.77;;;20.33;;
53115;SDS011;39010;48.088;7.954;2022-08-19T05:52:16;26.73;;;20.60;;
53115;SDS011;39010;48.088;7.954;2022-08-19T05:54:44;31.33;;;20.33;;
53115;SDS011;39010;48.088;7.954;2022-08-19T05:57:17;27.92;;;21.02;;
53115;SDS011;39010;48.088;7.954;2022-08-19T05:59:45;31.48;;;22.23;;
53115;SDS011;39010;48.088;7.954;2022-08-19T06:02:26;29.58;;;21.27;;
53115;SDS011;39010;48.088;7.954;2022-08-19T06:04:56;29.17;;;21.13;;
53115;SDS011;39010;48.088;7.954;2022-08-19T06:07:23;30.80;;;21.33;;
53115;SDS011;39010;48.088;7.954;2022-08-19T06:09:49;27.42;;;20.75;;
53115;SDS011;39010;48.088;7.954;2022-08-19T06:12:30;25.40;;;19.75;;
53115;SDS011;39010;48.088;7.954;2022-08-19T06:15:02;24.27;;;19.60;;
53115;SDS011;39010;48.088;7.954;2022-08-19T06:17:31;26.90;;;18.77;;
53115;SDS011;39010;48.088;7.954;2022-08-19T06:20:01;23.13;;;18.80;;
53115;SDS011;39010;48.088;7.954;2022-08-19T06:22:29;23.30;;;18.80;;
53115;SDS011;39010;48.088;7.954;2022-08-19T06:24:56;23.67;;;17.88;;
53115;SDS011;39010;48.088;7.954;2022-08-19T06:27:22;21.83;;;17.88;;
53115;SDS011;39010;48.088;7.954;2022-08-19T06:29:49;23.10;;;18.10;;
53115;SDS011;39010;48.088;7.954;2022-08-19T06:32:16;22.55;;;17.67;;
53115;SDS011;39010;48.088;7.954;2022-08-19T06:34:44;23.77;;;18.35;;
53115;SDS011;39010;48.088;7.954;2022-08-19T06:37:11;25.02;;;19.35;;
53115;SDS011;39010;48.088;7.954;2022-08-19T06:39:38;25.40;;;19.73;;
53115;SDS011;39010;48.088;7.954;2022-08-19T06:42:07;24.42;;;18.88;;
53115;SDS011;39010;48.088;7.954;2022-08-19T06:44:37;24.10;;;18.15;;
53115;SDS011;39010;48.088;7.954;2022-08-19T06:47:09;23.42;;;18.70;;
53115;SDS011;39010;48.088;7.954;2022-08-19T06:49:48;29.20;;;20.02;;
53115;SDS011;39010;48.088;7.954;2022-08-19T06:52:14;30.27;;;20.50;;
53115;SDS011;39010;48.088;7.954;2022-08-19T06:54:42;25.58;;;20.08;;
53115;SDS011;39010;48.088;7.954;2022-08-19T06:57:22;26.45;;;20.35;;
53115;SDS011;39010;48.088;7.954;2022-08-19T06:59:50;24.98;;;20.13;;
53115;SDS011;39010;48.088;7.954;2022-08-19T07:02:18;24.88;;;20.90;;
53115;SDS011;39010;48.088;7.954;2022-08-19T07:04:45;25.38;;;19.38;;
53115;SDS011;39010;48.088;7.954;2022-08-19T07:07:13;25.33;;;19.55;;
53115;SDS011;39010;48.088;7.954;2022-08-19T07:09:46;22.40;;;18.70;;
53115;SDS011;39010;48.088;7.954;2022-08-19T07:12:29;24.50;;;18.08;;
53115;SDS011;39010;48.088;7.954;2022-08-19T07:15:02;23.13;;;17.88;;
53115;SDS011;39010;48.088;7.954;2022-08-19T07:17:30;21.75;;;18.13;;
53115;SDS011;39010;48.088;7.954;2022-08-19T07:19:59;19.27;;;16.15;;
53115;SDS011;39010;48.088;7.954;2022-08-19T07:22:34;20.65;;;15.18;;
53115;SDS011;39010;48.088;7.954;2022-08-19T07:25:01;22.45;;;16.10;;
53115;SDS011;39010;48.088;7.954;2022-08-19T07:27:29;20.30;;;16.10;;
53115;SDS011;39010;48.088;7.954;2022-08-19T07:29:58;19.50;;;14.93;;
53115;SDS011;39010;48.088;7.954;2022-08-19T07:32:26;18.73;;;15.13;;
53115;SDS011;39010;48.088;7.954;2022-08-19T07:34:53;18.65;;;15.35;;
53115;SDS011;39010;48.088;7.954;2022-08-19T07:37:21;19.27;;;15.77;;
53115;SDS011;39010;48.088;7.954;2022-08-19T07:39:49;19.13;;;14.13;;
53115;SDS011;39010;48.088;7.954;2022-08-19T07:42:15;17.45;;;14.90;;
53115;SDS011;39010;48.088;7.954;2022-08-19T07:44:46;19.83;;;16.35;;
53115;SDS011;39010;48.088;7.954;2022-08-19T07:47:15;21.30;;;15.23;;
53115;SDS011;39010;48.088;7.954;2022-08-19T07:50:04;20.17;;;15.55;;
53115;SDS011;39010;48.088;7.954;2022-08-19T07:52:35;20.90;;;17.38;;
53115;SDS011;39010;48.088;7.954;2022-08-19T07:55:05;21.00;;;17.48;;
53115;SDS011;39010;48.088;7.954;2022-08-19T07:57:53;22.83;;;18.23;;
53115;SDS011;39010;48.088;7.954;2022-08-19T08:00:19;24.02;;;18.88;;
53115;SDS011;39010;48.088;7.954;2022-08-19T08:02:50;22.98;;;18.75;;
53115;SDS011;39010;48.088;7.954;2022-08-19T08:05:20;23.17;;;18.60;;
53115;SDS011;39010;48.088;7.954;2022-08-19T08:08:09;23.23;;;18.30;;
53115;SDS011;39010;48.088;7.954;2022-08-19T08:11:13;26.13;;;19.50;;
53115;SDS011;39010;48.088;7.954;2022-08-19T08:13:42;27.20;;;19.70;;
53115;SDS011;39010;48.088;7.954;2022-08-19T08:16:09;26.17;;;19.15;;
53115;SDS011;39010;48.088;7.954;2022-08-19T08:18:39;22.95;;;18.58;;
53115;SDS011;39010;48.088;7.954;2022-08-19T08:21:08;23.25;;;18.75;;
53115;SDS011;39010;48.088;7.954;2022-08-19T08:23:35;22.40;;;18.65;;
53115;SDS011;39010;48.088;7.954;2022-08-19T08:26:04;25.85;;;20.20;;
53115;SDS011;39010;48.088;7.954;2022-08-19T08:28:31;25.33;;;19.45;;
53115;SDS011;39010;48.088;7.954;2022-08-19T08:30:58;25.63;;;21.40;;
53115;SDS011;39010;48.088;7.954;2022-08-19T08:33:25;23.65;;;19.27;;
53115;SDS011;39010;48.088;7.954;2022-08-19T08:35:59;21.13;;;17.65;;
53115;SDS011;39010;48.088;7.954;2022-08-19T08:38:29;23.00;;;19.00;;
53115;SDS011;39010;48.088;7.954;2022-08-19T08:43:45;25.67;;;20.13;;
53115;SDS011;39010;48.088;7.954;2022-08-19T08:46:15;28.55;;;21.15;;
53115;SDS011;39010;48.088;7.954;2022-08-19T08:51:39;25.65;;;20.05;;
53115;SDS011;39010;48.088;7.954;2022-08-19T08:54:13;26.20;;;20.77;;
53115;SDS011;39010;48.088;7.954;2022-08-19T08:56:44;26.98;;;20.48;;
53115;SDS011;39010;48.088;7.954;2022-08-19T09:01:56;25.25;;;20.23;;
53115;SDS011;39010;48.088;7.954;2022-08-19T09:04:23;25.70;;;20.65;;
53115;SDS011;39010;48.088;7.954;2022-08-19T09:10:02;23.48;;;18.08;;
53115;SDS011;39010;48.088;7.954;2022-08-19T09:15:36;27.70;;;21.10;;
53115;SDS011;39010;48.088;7.954;2022-08-19T09:18:12;29.48;;;21.85;;
53115;SDS011;39010;48.088;7.954;2022-08-19T09:20:44;28.08;;;22.55;;
53115;SDS011;39010;48.088;7.954;2022-08-19T09:23:13;29.17;;;21.92;;
53115;SDS011;39010;48.088;7.954;2022-08-19T09:25:40;27.33;;;22.52;;
53115;SDS011;39010;48.088;7.954;2022-08-19T09:28:07;31.45;;;22.40;;
53115;SDS011;39010;48.088;7.954;2022-08-19T09:30:48;31.65;;;24.25;;
53115;SDS011;39010;48.088;7.954;2022-08-19T09:33:14;28.33;;;22.33;;
53115;SDS011;39010;48.088;7.954;2022-08-19T09:35:42;29.60;;;23.90;;
53115;SDS011;39010;48.088;7.954;2022-08-19T09:38:19;31.08;;;23.73;;
53115;SDS011;39010;48.088;7.954;2022-08-19T09:40:46;27.05;;;21.88;;
53115;SDS011;39010;48.088;7.954;2022-08-19T09:43:13;27.42;;;21.30;;
53115;SDS011;39010;48.088;7.954;2022-08-19T09:45:39;25.35;;;20.33;;
53115;SDS011;39010;48.088;7.954;2022-08-19T09:48:06;29.02;;;22.48;;
53115;SDS011;39010;48.088;7.954;2022-08-19T09:50:36;25.75;;;21.10;;
53115;SDS011;39010;48.088;7.954;2022-08-19T09:53:17;24.60;;;20.83;;
53115;SDS011;39010;48.088;7.954;2022-08-19T09:55:44;28.10;;;22.33;;
53115;SDS011;39010;48.088;7.954;2022-08-19T09:58:10;28.48;;;22.45;;
53115;SDS011;39010;48.088;7.954;2022-08-19T10:00:37;27.65;;;21.27;;
53115;SDS011;39010;48.088;7.954;2022-08-19T10:03:04;28.00;;;21.20;;
53115;SDS011;39010;48.088;7.954;2022-08-19T10:05:32;28.02;;;22.08;;
53115;SDS011;39010;48.088;7.954;2022-08-19T10:08:21;28.05;;;22.73;;
53115;SDS011;39010;48.088;7.954;2022-08-19T10:10:52;26.08;;;22.13;;
53115;SDS011;39010;48.088;7.954;2022-08-19T10:13:21;29.10;;;23.38;;
53115;SDS011;39010;48.088;7.954;2022-08-19T10:15:51;28.15;;;22.27;;
53115;SDS011;39010;48.088;7.954;2022-08-19T10:18:22;29.88;;;23.25;;
53115;SDS011;39010;48.088;7.954;2022-08-19T10:20:50;29.10;;;23.15;;
53115;SDS011;39010;48.088;7.954;2022-08-19T10:23:19;27.95;;;22.38;;
53115;SDS011;39010;48.088;7.954;2022-08-19T10:25:47;29.52;;;23.25;;
53115;SDS011;39010;48.088;7.954;2022-08-19T10:28:14;28.17;;;22.45;;
53115;SDS011;39010;48.088;7.954;2022-08-19T10:30:40;27.67;;;22.50;;
53115;SDS011;39010;48.088;7.954;2022-08-19T10:33:08;28.95;;;22.90;;
53115;SDS011;39010;48.088;7.954;2022-08-19T10:35:36;27.63;;;23.60;;
53115;SDS011;39010;48.088;7.954;2022-08-19T10:38:21;27.10;;;23.10;;
53115;SDS011;39010;48.088;7.954;2022-08-19T10:40:57;31.33;;;23.83;;
53115;SDS011;39010;48.088;7.954;2022-08-19T10:43:24;28.17;;;22.45;;
53115;SDS011;39010;48.088;7.954;2022-08-19T10:45:54;26.25;;;23.13;;
53115;SDS011;39010;48.088;7.954;2022-08-19T10:48:25;27.98;;;22.98;;
53115;SDS011;39010;48.088;7.954;2022-08-19T10:50:52;29.60;;;23.92;;
53115;SDS011;39010;48.088;7.954;2022-08-19T10:53:48;28.60;;;22.67;;
53115;SDS011;39010;48.088;7.954;2022-08-19T10:56:16;29.55;;;23.05;;
53115;SDS011;39010;48.088;7.954;2022-08-19T10:59:02;28.73;;;21.67;;
53115;SDS011;39010;48.088;7.954;2022-08-19T11:01:30;28.73;;;22.70;;
53115;SDS011;39010;48.088;7.954;2022-08-19T11:04:00;27.70;;;21.55;;
53115;SDS011;39010;48.088;7.954;2022-08-19T11:06:28;29.35;;;23.00;;
53115;SDS011;39010;48.088;7.954;2022-08-19T11:08:55;26.90;;;21.83;;
53115;SDS011;39010;48.088;7.954;2022-08-19T11:11:22;26.65;;;23.08;;
53115;SDS011;39010;48.088;7.954;2022-08-19T11:13:49;27.83;;;21.88;;
53115;SDS011;39010;48.088;7.954;2022-08-19T11:16:17;26.60;;;22.63;;
53115;SDS011;39010;48.088;7.954;2022-08-19T11:18:48;26.13;;;20.33;;
53115;SDS011;39010;48.088;7.954;2022-08-19T11:23:48;25.35;;;20.70;;
53115;SDS011;39010;48.088;7.954;2022-08-19T11:26:18;25.75;;;21.90;;
53115;SDS011;39010;48.088;7.954;2022-08-19T11:28:46;25.98;;;22.42;;
53115;SDS011;39010;48.088;7.954;2022-08-19T11:31:16;28.20;;;20.75;;
53115;SDS011;39010;48.088;7.954;2022-08-19T11:33:45;27.95;;;21.75;;
53115;SDS011;39010;48.088;7.954;2022-08-19T11:36:13;27.85;;;22.50;;
53115;SDS011;39010;48.088;7.954;2022-08-19T11:38:41;26.63;;;20.00;;
53115;SDS011;39010;48.088;7.954;2022-08-19T11:41:07;26.65;;;20.13;;
53115;SDS011;39010;48.088;7.954;2022-08-19T11:43:34;26.17;;;21.25;;
53115;SDS011;39010;48.088;7.954;2022-08-19T11:46:10;26.05;;;20.95;;
53115;SDS011;39010;48.088;7.954;2022-08-19T11:48:38;24.23;;;20.48;;
53115;SDS011;39010;48.088;7.954;2022-08-19T11:51:06;24.85;;;21.23;;
53115;SDS011;39010;48.088;7.954;2022-08-19T11:53:35;25.98;;;21.08;;
53115;SDS011;39010;48.088;7.954;2022-08-19T11:56:03;28.88;;;21.45;;
53115;SDS011;39010;48.088;7.954;2022-08-19T11:58:30;25.52;;;19.05;;
53115;SDS011;39010;48.088;7.954;2022-08-19T12:00:57;25.38;;;20.13;;
53115;SDS011;39010;48.088;7.954;2022-08-19T12:03:24;22.88;;;20.33;;
53115;SDS011;39010;48.088;7.954;2022-08-19T12:05:51;24.63;;;20.25;;
53115;SDS011;39010;48.088;7.954;2022-08-19T12:08:18;26.67;;;20.88;;
53115;SDS011;39010;48.088;7.954;2022-08-19T12:10:45;26.20;;;20.40;;
53115;SDS011;39010;48.088;7.954;2022-08-19T12:13:12;26.23;;;21.85;;
53115;SDS011;39010;48.088;7.954;2022-08-19T12:15:45;28.92;;;22.33;;
53115;SDS011;39010;48.088;7.954;2022-08-19T12:18:13;26.10;;;21.23;;
53115;SDS011;39010;48.088;7.954;2022-08-19T12:20:41;23.75;;;19.48;;
53115;SDS011;39010;48.088;7.954;2022-08-19T12:23:09;25.50;;;20.67;;
53115;SDS011;39010;48.088;7.954;2022-08-19T12:25:36;25.10;;;20.80;;
53115;SDS011;39010;48.088;7.954;2022-08-19T12:28:09;25.92;;;20.48;;
53115;SDS011;39010;48.088;7.954;2022-08-19T12:30:37;26.73;;;22.40;;
53115;SDS011;39010;48.088;7.954;2022-08-19T12:33:04;25.13;;;20.23;;
53115;SDS011;39010;48.088;7.954;2022-08-19T12:35:30;22.35;;;19.38;;
53115;SDS011;39010;48.088;7.954;2022-08-19T12:37:57;23.40;;;20.10;;
53115;SDS011;39010;48.088;7.954;2022-08-19T12:40:25;22.95;;;18.77;;
53115;SDS011;39010;48.088;7.954;2022-08-19T12:42:52;20.70;;;16.30;;
53115;SDS011;39010;48.088;7.954;2022-08-19T12:45:19;19.50;;;16.63;;
53115;SDS011;39010;48.088;7.954;2022-08-19T12:47:46;20.98;;;15.73;;
53115;SDS011;39010;48.088;7.954;2022-08-19T12:50:14;16.63;;;13.93;;
53115;SDS011;39010;48.088;7.954;2022-08-19T12:52:41;21.90;;;15.60;;
53115;SDS011;39010;48.088;7.954;2022-08-19T12:55:08;16.33;;;13.02;;
53115;SDS011;39010;48.088;7.954;2022-08-19T12:57:35;18.23;;;13.88;;
53115;SDS011;39010;48.088;7.954;2022-08-19T13:00:06;14.75;;;12.82;;
53115;SDS011;39010;48.088;7.954;2022-08-19T13:02:41;14.27;;;12.80;;
53115;SDS011;39010;48.088;7.954;2022-08-19T13:05:11;17.00;;;15.07;;
53115;SDS011;39010;48.088;7.954;2022-08-19T13:07:42;15.40;;;13.77;;
53115;SDS011;39010;48.088;7.954;2022-08-19T13:10:14;18.92;;;13.95;;
53115;SDS011;39010;48.088;7.954;2022-08-19T13:12:43;17.00;;;13.63;;
53115;SDS011;39010;48.088;7.954;2022-08-19T13:15:11;15.55;;;13.18;;
53115;SDS011;39010;48.088;7.954;2022-08-19T13:17:40;15.63;;;13.05;;
53115;SDS011;39010;48.088;7.954;2022-08-19T13:20:08;16.13;;;14.43;;
53115;SDS011;39010;48.088;7.954;2022-08-19T13:22:35;18.00;;;13.88;;
53115;SDS011;39010;48.088;7.954;2022-08-19T13:25:03;20.27;;;15.88;;
53115;SDS011;39010;48.088;7.954;2022-08-19T13:27:32;16.45;;;13.98;;
53115;SDS011;39010;48.088;7.954;2022-08-19T13:29:59;16.52;;;14.45;;
53115;SDS011;39010;48.088;7.954;2022-08-19T13:32:44;16.23;;;13.90;;
53115;SDS011;39010;48.088;7.954;2022-08-19T13:35:29;16.20;;;14.48;;
53115;SDS011;39010;48.088;7.954;2022-08-19T13:37:56;16.60;;;14.27;;
53115;SDS011;39010;48.088;7.954;2022-08-19T13:40:23;18.92;;;15.15;;
53115;SDS011;39010;48.088;7.954;2022-08-19T13:42:53;18.40;;;14.85;;
53115;SDS011;39010;48.088;7.954;2022-08-19T13:45:21;17.63;;;15.65;;
53115;SDS011;39010;48.088;7.954;2022-08-19T13:47:51;16.95;;;14.05;;
53115;SDS011;39010;48.088;7.954;2022-08-19T13:50:28;17.52;;;15.23;;
53115;SDS011;39010;48.088;7.954;2022-08-19T13:52:57;17.70;;;13.75;;
53115;SDS011;39010;48.088;7.954;2022-08-19T13:55:24;18.67;;;14.18;;
53115;SDS011;39010;48.088;7.954;2022-08-19T13:57:53;18.00;;;13.20;;
53115;SDS011;39010;48.088;7.954;2022-08-19T14:00:22;15.80;;;13.90;;
53115;SDS011;39010;48.088;7.954;2022-08-19T14:02:53;16.50;;;14.13;;
53115;SDS011;39010;48.088;7.954;2022-08-19T14:05:21;15.60;;;13.90;;
53115;SDS011;39010;48.088;7.954;2022-08-19T14:07:49;16.60;;;14.02;;
53115;SDS011;39010;48.088;7.954;2022-08-19T14:10:16;16.08;;;13.20;;
53115;SDS011;39010;48.088;7.954;2022-08-19T14:12:43;18.45;;;14.85;;
53115;SDS011;39010;48.088;7.954;2022-08-19T14:15:11;18.42;;;14.25;;
53115;SDS011;39010;48.088;7.954;2022-08-19T14:17:39;15.68;;;12.82;;
53115;SDS011;39010;48.088;7.954;2022-08-19T14:20:07;15.55;;;13.95;;
53115;SDS011;39010;48.088;7.954;2022-08-19T14:22:42;15.35;;;12.45;;
53115;SDS011;39010;48.088;7.954;2022-08-19T14:25:11;15.20;;;13.55;;
53115;SDS011;39010;48.088;7.954;2022-08-19T14:27:40;15.30;;;12.75;;
53115;SDS011;39010;48.088;7.954;2022-08-19T14:30:09;14.30;;;12.77;;
53115;SDS011;39010;48.088;7.954;2022-08-19T14:32:37;14.52;;;12.30;;
53115;SDS011;39010;48.088;7.954;2022-08-19T14:35:04;13.40;;;12.10;;
53115;SDS011;39010;48.088;7.954;2022-08-19T14:37:33;15.25;;;11.20;;
53115;SDS011;39010;48.088;7.954;2022-08-19T14:40:11;13.70;;;11.68;;
53115;SDS011;39010;48.088;7.954;2022-08-19T14:42:40;13.65;;;12.25;;
53115;SDS011;39010;48.088;7.954;2022-08-19T14:45:08;13.00;;;11.57;;
53115;SDS011;39010;48.088;7.954;2022-08-19T14:47:37;13.80;;;11.98;;
53115;SDS011;39010;48.088;7.954;2022-08-19T14:50:15;12.68;;;11.35;;
53115;SDS011;39010;48.088;7.954;2022-08-19T14:52:44;13.23;;;11.10;;
53115;SDS011;39010;48.088;7.954;2022-08-19T14:55:15;15.90;;;12.45;;
53115;SDS011;39010;48.088;7.954;2022-08-19T14:57:43;16.33;;;11.40;;
53115;SDS011;39010;48.088;7.954;2022-08-19T15:00:11;13.95;;;11.63;;
53115;SDS011;39010;48.088;7.954;2022-08-19T15:02:42;12.68;;;10.80;;
53115;SDS011;39010;48.088;7.954;2022-08-19T15:05:10;12.98;;;11.50;;
53115;SDS011;39010;48.088;7.954;2022-08-19T15:07:39;11.88;;;10.60;;
53115;SDS011;39010;48.088;7.954;2022-08-19T15:10:07;15.68;;;10.93;;
53115;SDS011;39010;48.088;7.954;2022-08-19T15:12:36;12.13;;;9.65;;
53115;SDS011;39010;48.088;7.954;2022-08-19T15:15:06;11.90;;;9.93;;
53115;SDS011;39010;48.088;7.954;2022-08-19T15:17:34;10.48;;;9.00;;
53115;SDS011;39010;48.088;7.954;2022-08-19T15:20:15;11.27;;;9.13;;
53115;SDS011;39010;48.088;7.954;2022-08-19T15:22:44;10.82;;;9.18;;
53115;SDS011;39010;48.088;7.954;2022-08-19T15:25:12;12.10;;;9.88;;
53115;SDS011;39010;48.088;7.954;2022-08-19T15:27:41;13.13;;;10.65;;
53115;SDS011;39010;48.088;7.954;2022-08-19T15:30:09;14.05;;;9.80;;
53115;SDS011;39010;48.088;7.954;2022-08-19T15:32:37;13.70;;;10.80;;
53115;SDS011;39010;48.088;7.954;2022-08-19T15:35:05;14.32;;;9.88;;